Time;durP1;ratioP1;P1;durP2;ratioP2;P2;SDS_P1;SDS_P2;PMS_P1;PMS_P2;Temp;Humidity;BMP_temperature;BMP_pressure;BME280_temperature;BME280_humidity;BME280_pressure;Samples;Min_cycle;Max_cycle;Signal;HPM_P1;HPM_P2
2023/04/26 00:02:21;;;;;;;;;4.00;2.33;;;;;11.48;51.31;101049.66;4956978;28;45333;-62
2023/04/26 00:04:54;;;;;;;;;11.00;11.00;;;;;11.49;51.39;101061.03;4956000;28;45563;-61
2023/04/26 00:07:27;;;;;;;;;17.00;15.75;;;;;11.50;51.70;101062.78;4956928;28;45515;-61
2023/04/26 00:09:53;;;;;;;;;17.67;15.33;;;;;11.52;50.34;101066.22;4956912;28;45594;-62
2023/04/26 00:12:18;;;;;;;;;17.33;14.67;;;;;11.47;51.13;101047.94;4956919;28;45447;-62
2023/04/26 00:14:43;;;;;;;;;18.33;13.67;;;;;11.51;51.35;101053.97;4956894;28;46235;-61
2023/04/26 00:17:09;;;;;;;;;17.75;17.75;;;;;11.52;51.15;101045.13;4956926;28;45382;-61
2023/04/26 00:19:34;;;;;;;;;19.00;16.50;;;;;11.51;51.12;101040.78;4955906;28;45467;-61
2023/04/26 00:22:00;;;;;;;;;17.00;16.00;;;;;11.48;51.46;101038.25;4956765;28;45383;-61
2023/04/26 00:24:25;;;;;;;;;19.50;17.75;;;;;11.44;50.89;101032.22;4955649;28;55373;-62
2023/04/26 00:26:54;;;;;;;;;22.00;19.50;;;;;11.45;50.88;101039.22;4956974;28;51235;-61
2023/04/26 00:29:20;;;;;;;;;19.33;16.33;;;;;11.45;51.18;101035.72;4956871;28;45444;-62
2023/04/26 00:31:45;;;;;;;;;15.00;15.00;;;;;11.44;50.96;101028.72;4956346;28;45436;-62
2023/04/26 00:34:10;;;;;;;;;15.75;15.50;;;;;11.44;51.49;101026.09;4956585;28;46207;-62
2023/04/26 00:36:35;;;;;;;;;15.00;13.33;;;;;11.43;51.32;101022.59;4956614;28;45380;-61
2023/04/26 00:39:01;;;;;;;;;17.00;17.00;;;;;11.46;51.99;101021.63;4956223;28;53794;-62
2023/04/26 00:41:26;;;;;;;;;21.00;13.33;;;;;11.47;51.38;101023.34;4956629;28;45566;-61
2023/04/26 00:43:52;;;;;;;;;15.00;15.00;;;;;11.47;51.28;101025.97;4956449;28;46215;-62
2023/04/26 00:46:17;;;;;;;;;15.25;15.25;;;;;11.40;50.77;101012.16;4956608;28;45513;-62
2023/04/26 00:48:43;;;;;;;;;14.00;14.00;;;;;11.36;50.80;101000.00;4956515;28;45459;-62
2023/04/26 00:51:08;;;;;;;;;17.33;16.67;;;;;11.43;51.48;101009.44;4955361;28;45461;-62
2023/04/26 00:53:34;;;;;;;;;17.67;15.00;;;;;11.44;50.69;101007.66;4956332;28;46355;-62
2023/04/26 00:56:00;;;;;;;;;14.00;13.33;;;;;11.43;51.04;101013.84;4956197;28;45513;-62
2023/04/26 00:58:26;;;;;;;;;17.00;16.00;;;;;11.42;50.98;101004.22;4954989;28;45466;-61
2023/04/26 01:00:51;;;;;;;;;15.00;12.67;;;;;11.43;50.69;101001.53;4956215;28;45490;-62
2023/04/26 01:03:17;;;;;;;;;13.67;13.67;;;;;11.41;50.60;100992.81;4956042;28;55429;-62
2023/04/26 01:05:43;;;;;;;;;12.00;12.00;;;;;11.43;50.46;101001.53;4956414;28;45470;-62
2023/04/26 01:08:10;;;;;;;;;12.00;12.00;;;;;11.40;50.83;100983.19;4955082;28;45456;-62
2023/04/26 01:10:35;;;;;;;;;11.00;10.33;;;;;11.37;50.73;100980.66;4956299;28;45626;-62
2023/04/26 01:13:02;;;;;;;;;8.00;8.00;;;;;11.38;49.97;100986.78;4956002;28;45450;-62
2023/04/26 01:15:29;;;;;;;;;12.67;11.67;;;;;11.36;49.94;100994.72;4955920;28;45486;-61
2023/04/26 01:17:58;;;;;;;;;11.00;11.00;;;;;11.35;50.05;100992.16;4956228;28;45436;-62
2023/04/26 01:20:24;;;;;;;;;12.67;10.33;;;;;11.35;49.77;100990.38;4956027;28;45489;-62
2023/04/26 01:22:50;;;;;;;;;12.00;11.00;;;;;11.32;49.69;100984.34;4956040;28;45418;-62
2023/04/26 01:25:17;;;;;;;;;13.00;10.67;;;;;11.28;50.50;100988.84;4955818;28;45516;-62
2023/04/26 01:27:42;;;;;;;;;11.00;11.00;;;;;11.27;49.78;100974.81;4956521;28;45412;-62
2023/04/26 01:30:08;;;;;;;;;12.00;12.00;;;;;11.27;49.83;100973.97;4955897;28;45390;-61
2023/04/26 01:32:34;;;;;;;;;11.33;11.33;;;;;11.20;50.42;100965.41;4954601;28;46445;-62
2023/04/26 01:34:59;;;;;;;;;10.00;10.00;;;;;11.16;50.16;100961.16;4954424;28;45455;-62
2023/04/26 01:37:25;;;;;;;;;13.67;13.00;;;;;11.10;50.28;100960.50;4959219;28;45417;-61
2023/04/26 01:39:50;;;;;;;;;9.00;8.67;;;;;11.03;50.15;100970.34;4959443;28;45533;-61
2023/04/26 01:42:16;;;;;;;;;9.50;8.50;;;;;11.00;50.41;100973.06;4959307;28;45476;-61
2023/04/26 01:44:41;;;;;;;;;10.33;10.33;;;;;10.99;50.41;100969.59;4958997;28;45423;-62
2023/04/26 01:47:06;;;;;;;;;11.00;11.00;;;;;10.95;49.88;100964.44;4959548;28;45370;-61
2023/04/26 01:49:32;;;;;;;;;10.67;10.67;;;;;10.97;50.05;100976.66;4959003;28;45427;-62
2023/04/26 01:51:58;;;;;;;;;8.67;8.67;;;;;10.98;50.22;100973.09;4958929;28;50150;-62
2023/04/26 01:54:23;;;;;;;;;14.33;12.00;;;;;10.97;50.14;100975.81;4959116;28;46118;-61
2023/04/26 01:56:48;;;;;;;;;12.67;12.33;;;;;10.94;50.92;100979.38;4959314;28;45965;-62
2023/04/26 01:59:14;;;;;;;;;10.33;10.33;;;;;10.94;50.79;100984.66;4958979;28;45407;-61
2023/04/26 02:01:42;;;;;;;;;11.67;11.00;;;;;10.92;50.40;100973.31;4958746;28;45563;-62
2023/04/26 02:04:08;;;;;;;;;14.50;13.25;;;;;10.95;50.93;100972.34;4958957;28;45459;-61
2023/04/26 02:06:33;;;;;;;;;13.00;12.00;;;;;10.82;50.70;100958.69;4958614;28;45398;-61
2023/04/26 02:08:58;;;;;;;;;9.67;9.67;;;;;10.80;51.34;100961.41;4959149;28;45538;-62
2023/04/26 02:11:25;;;;;;;;;11.33;11.00;;;;;10.76;50.87;100948.38;4956907;28;58215;-62
2023/04/26 02:13:51;;;;;;;;;11.25;11.25;;;;;10.68;51.01;100945.97;4957603;28;45503;-62
2023/04/26 02:16:16;;;;;;;;;13.75;11.50;;;;;10.68;50.95;100959.13;4958768;28;45393;-61
2023/04/26 02:18:43;;;;;;;;;9.67;9.67;;;;;10.59;50.88;100964.66;4958912;28;45630;-62
2023/04/26 02:21:10;;;;;;;;;10.00;10.00;;;;;10.59;51.62;100962.03;4958593;28;45324;-62
2023/04/26 02:23:36;;;;;;;;;10.25;10.25;;;;;10.64;51.16;100965.41;4958429;28;45482;-62
2023/04/26 02:26:02;;;;;;;;;12.00;10.00;;;;;10.61;51.04;100958.47;4959333;28;45327;-62
2023/04/26 02:28:27;;;;;;;;;15.25;12.25;;;;;10.50;51.29;100942.09;4958590;28;45613;-61
2023/04/26 02:30:52;;;;;;;;;11.33;9.33;;;;;10.64;52.05;100970.66;4941031;28;46437;-61
2023/04/26 02:33:18;;;;;;;;;9.67;9.67;;;;;10.70;51.81;100973.09;4958666;28;45477;-62
2023/04/26 02:35:43;;;;;;;;;13.33;13.33;;;;;10.72;51.71;100976.56;4958400;28;45742;-61
2023/04/26 02:38:09;;;;;;;;;10.75;10.25;;;;;10.65;51.57;100961.84;4958073;28;57593;-61
2023/04/26 02:40:34;;;;;;;;;15.25;13.75;;;;;10.68;51.50;100963.53;4958614;28;46117;-62
2023/04/26 02:43:00;;;;;;;;;13.50;12.00;;;;;10.62;51.57;100956.69;4958630;28;45484;-62
2023/04/26 02:45:25;;;;;;;;;12.50;12.50;;;;;10.63;52.00;100958.41;4958307;28;45497;-61
2023/04/26 02:47:51;;;;;;;;;12.75;12.75;;;;;10.57;51.98;100955.94;4957657;28;45410;-62
2023/04/26 02:50:16;;;;;;;;;15.25;14.50;;;;;10.51;51.97;100946.47;4958352;28;45520;-61
2023/04/26 02:52:42;;;;;;;;;15.75;11.25;;;;;10.54;51.72;100956.91;4958155;28;45538;-61
2023/04/26 02:55:07;;;;;;;;;10.25;10.00;;;;;10.54;51.95;100950.78;4958329;28;45442;-61
2023/04/26 02:57:33;;;;;;;;;15.25;11.50;;;;;10.54;52.34;100946.38;4956976;28;45655;-62
2023/04/26 02:59:58;;;;;;;;;11.75;11.75;;;;;10.51;51.78;100951.75;4957792;28;46222;-62
2023/04/26 03:02:24;;;;;;;;;13.00;13.00;;;;;10.51;52.04;100958.78;4957887;28;45435;-61
2023/04/26 03:04:49;;;;;;;;;16.00;13.50;;;;;10.50;52.32;100955.25;4958233;28;45415;-61
2023/04/26 03:07:15;;;;;;;;;17.50;16.75;;;;;10.46;52.30;100947.53;4957895;28;45371;-61
2023/04/26 03:09:41;;;;;;;;;17.25;14.75;;;;;10.51;52.61;100957.00;4957752;28;45394;-62
2023/04/26 03:12:06;;;;;;;;;14.50;14.50;;;;;10.46;52.73;100958.91;4957994;28;45359;-61
2023/04/26 03:14:32;;;;;;;;;11.00;11.00;;;;;10.39;52.53;100952.94;4958119;28;45487;-61
2023/04/26 03:16:58;;;;;;;;;14.75;14.75;;;;;10.37;52.91;100951.28;4957839;28;45470;-62
2023/04/26 03:19:24;;;;;;;;;15.75;14.50;;;;;10.36;52.41;100946.91;4957683;28;45552;-61
2023/04/26 03:21:50;;;;;;;;;11.75;11.75;;;;;10.35;52.70;100946.06;4957509;28;45685;-62
2023/04/26 03:24:15;;;;;;;;;14.00;14.00;;;;;10.33;52.88;100944.38;4956834;28;45614;-61
2023/04/26 03:26:41;;;;;;;;;12.50;12.50;;;;;10.34;52.39;100946.09;4958268;28;45437;-62
2023/04/26 03:29:06;;;;;;;;;12.50;12.00;;;;;10.30;51.88;100947.09;4957115;28;55208;-61
2023/04/26 03:31:31;;;;;;;;;12.25;12.25;;;;;10.30;52.09;100947.09;4957738;28;45438;-61
2023/04/26 03:33:57;;;;;;;;;11.75;11.75;;;;;10.22;52.92;100939.41;4957619;28;45496;-61
2023/04/26 03:36:22;;;;;;;;;12.75;12.25;;;;;10.23;52.43;100956.88;4957589;28;45679;-62
2023/04/26 03:38:47;;;;;;;;;14.75;12.25;;;;;10.23;53.15;100951.63;4957444;28;45359;-62
2023/04/26 03:41:13;;;;;;;;;16.25;15.00;;;;;10.23;53.20;100951.63;4957461;28;45443;-62
2023/04/26 03:43:38;;;;;;;;;13.75;13.75;;;;;10.23;52.75;100935.84;4957674;28;45442;-62
2023/04/26 03:46:04;;;;;;;;;14.00;12.25;;;;;10.27;53.37;100948.06;4957471;28;45395;-62
2023/04/26 03:48:29;;;;;;;;;13.75;12.00;;;;;10.26;52.99;100941.06;4957180;28;45877;-62
2023/04/26 03:50:55;;;;;;;;;12.25;12.25;;;;;10.24;53.32;100937.59;4957073;28;45438;-61
2023/04/26 03:53:20;;;;;;;;;13.00;11.75;;;;;10.27;52.92;100937.53;4957488;28;45421;-61
2023/04/26 03:55:46;;;;;;;;;13.00;13.00;;;;;10.24;52.53;100940.22;4957280;28;45491;-62
2023/04/26 03:58:11;;;;;;;;;16.50;15.50;;;;;10.21;51.98;100950.81;4955045;28;45453;-61
2023/04/26 04:00:37;;;;;;;;;15.50;15.50;;;;;10.20;52.35;100940.34;4957283;28;45471;-61
2023/04/26 04:03:03;;;;;;;;;12.50;12.50;;;;;10.12;52.97;100928.28;4956149;28;45547;-62
2023/04/26 04:05:28;;;;;;;;;10.75;10.75;;;;;10.21;52.75;100936.81;4956999;28;45590;-61
2023/04/26 04:07:55;;;;;;;;;14.00;14.00;;;;;10.23;52.63;100938.47;4955590;28;47295;-62
2023/04/26 04:10:22;;;;;;;;;18.25;17.00;;;;;10.24;52.98;100934.97;4956751;28;45449;-62
2023/04/26 04:12:47;;;;;;;;;16.75;13.75;;;;;10.27;52.80;100932.28;4957140;28;45451;-61
2023/04/26 04:15:13;;;;;;;;;14.50;14.25;;;;;10.28;52.74;100943.66;4956702;28;45689;-62
2023/04/26 04:17:38;;;;;;;;;14.00;13.50;;;;;10.24;52.31;100944.63;4956947;28;46147;-61
2023/04/26 04:20:06;;;;;;;;;12.50;12.00;;;;;10.22;52.83;100944.66;4956709;28;45740;-62
2023/04/26 04:22:31;;;;;;;;;15.75;14.75;;;;;10.22;52.55;100935.91;4957106;28;45466;-62
2023/04/26 04:24:58;;;;;;;;;14.00;14.00;;;;;10.22;52.55;100946.44;4956725;28;45526;-61
2023/04/26 04:27:24;;;;;;;;;19.50;17.75;;;;;10.20;52.50;100943.84;4957242;28;45692;-61
2023/04/26 04:29:49;;;;;;;;;15.25;15.25;;;;;10.18;52.58;100936.00;4956736;28;45491;-61
2023/04/26 04:32:16;;;;;;;;;18.25;17.25;;;;;10.16;52.59;100937.81;4956736;28;45427;-62
2023/04/26 04:34:41;;;;;;;;;15.00;12.50;;;;;10.17;52.80;100951.81;4956849;28;45561;-62
2023/04/26 04:37:07;;;;;;;;;16.00;16.00;;;;;10.15;52.35;100935.22;4956168;28;46062;-62
2023/04/26 04:39:32;;;;;;;;;18.25;17.00;;;;;10.13;52.47;100937.03;4956576;28;45412;-62
2023/04/26 04:41:59;;;;;;;;;17.00;15.50;;;;;10.13;52.81;100945.78;4956826;28;45377;-61
2023/04/26 04:44:25;;;;;;;;;17.00;14.75;;;;;10.12;52.60;100945.81;4957000;28;45601;-61
2023/04/26 04:46:52;;;;;;;;;17.00;15.75;;;;;10.09;53.09;100941.50;4956397;28;45401;-61
2023/04/26 04:49:17;;;;;;;;;18.00;16.75;;;;;10.09;52.65;100941.50;4956207;28;45609;-61
2023/04/26 04:51:43;;;;;;;;;14.50;13.00;;;;;10.06;52.49;100946.84;4956424;28;45485;-62
2023/04/26 04:54:10;;;;;;;;;17.50;14.50;;;;;10.04;52.88;100945.16;4956377;28;45507;-61
2023/04/26 04:56:36;;;;;;;;;17.25;15.00;;;;;10.04;52.62;100947.78;4955446;28;45432;-62
2023/04/26 04:59:01;;;;;;;;;16.75;16.75;;;;;9.97;52.97;100936.59;4955837;28;45447;-61
2023/04/26 05:01:26;;;;;;;;;16.50;15.00;;;;;10.01;52.30;100940.84;4956415;28;45445;-61
2023/04/26 05:03:52;;;;;;;;;18.25;16.25;;;;;10.07;52.59;100947.69;4956332;28;45522;-62
2023/04/26 05:06:17;;;;;;;;;15.50;13.75;;;;;10.04;53.18;100939.91;4955981;28;46127;-61
2023/04/26 05:08:42;;;;;;;;;12.75;12.75;;;;;10.05;53.05;100931.13;4956270;28;45384;-61
2023/04/26 05:11:08;;;;;;;;;16.75;14.75;;;;;10.06;52.91;100933.72;4954891;28;45519;-62
2023/04/26 05:13:33;;;;;;;;;14.50;13.25;;;;;10.04;52.47;100929.41;4955555;28;58048;-62
2023/04/26 05:15:58;;;;;;;;;18.50;14.50;;;;;10.07;52.83;100926.69;4956084;28;47822;-62
2023/04/26 05:18:23;;;;;;;;;13.75;13.75;;;;;10.09;53.28;100930.13;4955419;28;52804;-61
2023/04/26 05:20:49;;;;;;;;;15.50;15.50;;;;;10.09;53.25;100943.28;4956103;28;45381;-63
2023/04/26 05:23:14;;;;;;;;;15.00;15.00;;;;;10.11;52.75;100947.59;4956150;28;45518;-62
2023/04/26 05:25:40;;;;;;;;;15.00;13.25;;;;;10.09;53.01;100944.13;4955520;28;54162;-61
2023/04/26 05:28:11;;;;;;;;;17.00;17.00;;;;;10.10;53.09;100951.13;4956544;28;45382;-61
2023/04/26 05:30:36;;;;;;;;;17.75;17.25;;;;;10.11;53.12;100952.84;4955935;28;45403;-62
2023/04/26 05:33:02;;;;;;;;;15.25;14.75;;;;;10.12;53.15;100966.84;4956023;28;45546;-62
2023/04/26 05:35:27;;;;;;;;;17.00;16.75;;;;;10.18;53.19;100956.16;4955576;28;46713;-61
2023/04/26 05:37:53;;;;;;;;;17.50;17.00;;;;;10.20;53.11;100956.97;4955893;28;45447;-62
2023/04/26 05:40:18;;;;;;;;;16.75;16.00;;;;;10.16;52.97;100953.56;4955756;28;45428;-62
2023/04/26 05:42:43;;;;;;;;;18.75;17.00;;;;;10.22;52.99;100955.16;4956141;28;45436;-61
2023/04/26 05:45:09;;;;;;;;;19.00;19.00;;;;;10.24;53.55;100958.63;4955772;28;45482;-62
2023/04/26 05:47:35;;;;;;;;;14.25;14.25;;;;;10.23;53.51;100954.25;4955550;28;45629;-61
2023/04/26 05:50:00;;;;;;;;;18.50;17.50;;;;;10.24;53.39;100969.13;4955971;28;45471;-63
2023/04/26 05:52:26;;;;;;;;;14.00;12.50;;;;;10.28;53.30;100957.66;4955771;28;45403;-61
2023/04/26 05:54:51;;;;;;;;;14.25;14.25;;;;;10.31;52.62;100957.56;4955612;28;45426;-62
2023/04/26 05:57:17;;;;;;;;;22.25;19.25;;;;;10.31;52.63;100954.94;4955271;28;54298;-62
2023/04/26 05:59:43;;;;;;;;;17.25;14.00;;;;;10.26;52.90;100948.94;4942038;28;45447;-61
2023/04/26 06:02:10;;;;;;;;;22.25;18.25;;;;;10.23;52.76;100956.03;4955246;28;45437;-62
2023/04/26 06:04:36;;;;;;;;;18.75;17.50;;;;;10.20;53.09;100958.75;4955155;28;46022;-62
2023/04/26 06:07:01;;;;;;;;;18.50;17.75;;;;;10.21;52.96;100958.72;4955514;28;45439;-62
2023/04/26 06:09:26;;;;;;;;;14.75;14.75;;;;;10.26;53.31;100963.81;4955325;28;46487;-62
2023/04/26 06:11:52;;;;;;;;;16.50;16.25;;;;;10.23;52.55;100964.75;4955222;28;45580;-62
2023/04/26 06:14:18;;;;;;;;;21.00;18.25;;;;;10.15;53.04;100958.88;4954704;28;61152;-61
2023/04/26 06:16:43;;;;;;;;;13.25;12.75;;;;;10.21;52.98;100965.72;4955173;28;45595;-61
2023/04/26 06:19:08;;;;;;;;;15.25;15.25;;;;;10.20;52.39;100967.47;4955395;28;45438;-61
2023/04/26 06:21:34;;;;;;;;;15.50;15.25;;;;;10.24;52.71;100973.53;4955807;28;55815;-61
2023/04/26 06:23:59;;;;;;;;;18.00;16.25;;;;;10.27;52.42;100978.72;4958266;28;45584;-62
2023/04/26 06:26:24;;;;;;;;;11.25;11.25;;;;;10.28;52.42;100976.06;4959081;28;52228;-61
2023/04/26 06:28:50;;;;;;;;;11.25;11.25;;;;;10.28;52.48;100970.78;4958462;28;45475;-62
2023/04/26 06:31:15;;;;;;;;;14.50;14.25;;;;;10.28;52.34;100960.28;4957351;28;45421;-65
2023/04/26 06:33:41;;;;;;;;;19.25;16.50;;;;;10.34;52.43;100959.25;4958391;28;45371;-69
2023/04/26 06:36:10;;;;;;;;;16.75;16.00;;;;;10.33;53.09;100950.50;4958353;28;46022;-62
2023/04/26 06:38:36;;;;;;;;;13.75;13.75;;;;;10.34;52.89;100938.22;4958345;28;45502;-62
2023/04/26 06:41:01;;;;;;;;;16.25;16.25;;;;;10.42;52.50;100959.88;4957968;28;51422;-61
2023/04/26 06:43:27;;;;;;;;;20.75;20.00;;;;;10.41;52.41;100958.16;4958241;28;45427;-62
2023/04/26 06:45:52;;;;;;;;;14.75;14.75;;;;;10.47;53.18;100959.75;4957910;28;45462;-61
2023/04/26 06:48:18;;;;;;;;;15.50;15.00;;;;;10.48;53.06;100961.50;4958416;28;45407;-62
2023/04/26 06:50:43;;;;;;;;;18.75;18.25;;;;;10.53;52.37;100965.72;4957813;28;51567;-62
2023/04/26 06:53:08;;;;;;;;;21.00;20.00;;;;;10.51;52.45;100969.28;4957573;28;58871;-62
2023/04/26 06:55:34;;;;;;;;;17.50;16.50;;;;;10.53;52.73;100967.47;4958090;28;45383;-61
2023/04/26 06:57:59;;;;;;;;;16.25;14.50;;;;;10.56;53.08;100968.25;4957703;28;45363;-62
2023/04/26 07:00:24;;;;;;;;;17.25;17.25;;;;;10.58;52.18;100963.78;4958140;28;45435;-62
2023/04/26 07:02:50;;;;;;;;;18.25;14.75;;;;;10.57;52.51;100959.44;4957674;28;46037;-62
2023/04/26 07:05:16;;;;;;;;;21.50;20.00;;;;;10.66;51.97;100971.44;4957707;28;45432;-62
2023/04/26 07:07:41;;;;;;;;;16.50;15.25;;;;;10.63;52.08;100966.28;4957968;28;45381;-62
2023/04/26 07:10:07;;;;;;;;;14.25;14.25;;;;;10.65;51.82;100967.09;4957588;28;45487;-62
2023/04/26 07:12:32;;;;;;;;;14.50;14.50;;;;;10.66;52.12;100970.59;4957905;28;46201;-62
2023/04/26 07:14:58;;;;;;;;;14.50;13.50;;;;;10.67;51.47;100978.44;4957892;28;45470;-63
2023/04/26 07:17:23;;;;;;;;;11.25;11.25;;;;;10.65;51.56;100969.75;4957915;28;45554;-62
2023/04/26 07:19:49;;;;;;;;;15.75;15.75;;;;;10.66;51.37;100979.34;4957858;28;45567;-62
2023/04/26 07:22:14;;;;;;;;;12.50;11.00;;;;;10.67;51.88;100978.44;4956141;28;46300;-62
2023/04/26 07:24:39;;;;;;;;;11.50;11.00;;;;;10.68;51.07;100979.31;4956440;28;45729;-62
2023/04/26 07:27:05;;;;;;;;;11.75;11.50;;;;;10.69;51.09;100975.75;4958346;28;45440;-62
2023/04/26 07:29:30;;;;;;;;;14.00;13.25;;;;;10.70;51.44;100973.09;4957691;28;45471;-62
2023/04/26 07:31:56;;;;;;;;;15.75;13.75;;;;;10.73;51.65;100982.66;4957150;28;46075;-62
2023/04/26 07:34:21;;;;;;;;;14.50;13.50;;;;;10.73;51.44;100972.16;4957334;28;45438;-62
2023/04/26 07:36:47;;;;;;;;;17.75;15.25;;;;;10.77;51.11;100973.75;4957275;28;47489;-62
2023/04/26 07:39:14;;;;;;;;;16.25;16.25;;;;;10.76;51.23;100962.38;4957374;28;45645;-62
2023/04/26 07:41:39;;;;;;;;;15.00;15.00;;;;;10.74;51.23;100956.28;4957370;28;45452;-62
2023/04/26 07:44:04;;;;;;;;;24.00;24.00;;;;;10.80;52.00;100961.41;4957180;28;45511;-62
2023/04/26 07:46:32;;;;;;;;;15.50;13.75;;;;;10.81;51.50;100947.31;4957352;28;45432;-61
2023/04/26 07:48:57;;;;;;;;;16.75;15.50;;;;;10.88;51.72;100948.00;4957166;28;45347;-62
2023/04/26 07:51:22;;;;;;;;;11.25;10.50;;;;;10.89;51.87;100951.50;4955681;28;47281;-62
2023/04/26 07:53:48;;;;;;;;;17.25;17.25;;;;;10.97;51.24;100949.47;4957188;28;45535;-62
2023/04/26 07:56:14;;;;;;;;;15.75;14.50;;;;;10.99;50.86;100950.31;4957075;28;45418;-62
2023/04/26 07:58:39;;;;;;;;;13.75;13.75;;;;;11.06;51.75;100954.44;4957208;28;45675;-65
2023/04/26 08:01:05;;;;;;;;;16.00;15.75;;;;;11.11;50.96;100951.69;4956537;28;45810;-62
2023/04/26 08:03:31;;;;;;;;;15.50;15.50;;;;;11.16;50.78;100957.66;4956865;28;45534;-62
2023/04/26 08:05:57;;;;;;;;;16.25;13.50;;;;;11.17;50.13;100954.97;4957094;28;45495;-62
2023/04/26 08:08:26;;;;;;;;;14.25;13.00;;;;;11.23;50.03;100957.41;4956908;28;45379;-61
2023/04/26 08:10:52;;;;;;;;;11.50;11.50;;;;;11.30;50.79;100957.22;4956860;28;46082;-61
2023/04/26 08:13:17;;;;;;;;;18.00;14.50;;;;;11.33;50.83;100949.19;4956619;28;45386;-62
2023/04/26 08:15:43;;;;;;;;;16.00;13.25;;;;;11.36;50.33;100946.47;4957172;28;45493;-63
2023/04/26 08:18:08;;;;;;;;;16.00;12.00;;;;;11.40;51.04;100954.22;4957115;28;45515;-63
2023/04/26 08:20:33;;;;;;;;;13.00;12.00;;;;;11.42;50.63;100954.19;4956118;28;57669;-63
2023/04/26 08:22:59;;;;;;;;;12.67;12.00;;;;;11.46;50.82;100945.25;4956423;28;45439;-63
2023/04/26 08:25:25;;;;;;;;;13.67;13.67;;;;;11.44;49.69;100945.28;4956389;28;45574;-63
2023/04/26 08:27:51;;;;;;;;;16.00;14.67;;;;;11.43;50.47;100940.94;4957281;28;45581;-62
2023/04/26 08:30:17;;;;;;;;;24.50;20.75;;;;;11.45;49.67;100940.91;4956186;28;46234;-63
2023/04/26 08:32:44;;;;;;;;;16.25;16.00;;;;;11.49;50.13;100935.47;4955164;28;45427;-61
2023/04/26 08:35:09;;;;;;;;;13.33;13.33;;;;;11.56;50.49;100936.13;4956673;28;45439;-61
2023/04/26 08:37:35;;;;;;;;;18.00;15.75;;;;;11.56;50.37;100930.88;4956346;28;45432;-61
2023/04/26 08:40:01;;;;;;;;;13.67;11.33;;;;;11.59;50.40;100927.28;4956617;28;45425;-62
2023/04/26 08:42:27;;;;;;;;;13.67;13.00;;;;;11.49;49.53;100922.28;4956317;28;45448;-62
2023/04/26 08:44:53;;;;;;;;;12.00;12.00;;;;;11.57;49.95;100929.94;4956160;28;45410;-62
2023/04/26 08:47:34;;;;;;;;;14.33;14.33;;;;;11.59;50.11;100925.50;4956405;28;45499;-62
2023/04/26 08:50:02;;;;;;;;;10.00;10.00;;;;;11.64;49.65;100936.72;4955199;28;45581;-62
2023/04/26 08:52:30;;;;;;;;;11.67;10.67;;;;;11.65;49.79;100930.53;4956114;28;45483;-62
2023/04/26 08:54:57;;;;;;;;;14.67;11.00;;;;;11.70;50.18;100936.50;4956414;28;45415;-62
2023/04/26 08:57:26;;;;;;;;;15.00;12.67;;;;;11.81;50.96;100948.47;4956071;28;45617;-62
2023/04/26 08:59:55;;;;;;;;;11.33;11.33;;;;;11.83;49.76;100941.38;4955797;28;45408;-62
2023/04/26 09:02:22;;;;;;;;;11.67;11.67;;;;;11.80;49.91;100934.44;4955950;28;45550;-62
2023/04/26 09:04:48;;;;;;;;;11.00;11.00;;;;;11.87;51.03;100938.59;4956029;28;45546;-62
2023/04/26 09:07:21;;;;;;;;;8.67;8.67;;;;;11.91;49.97;100932.31;4956306;28;45508;-62
2023/04/26 09:09:50;;;;;;;;;10.33;10.33;;;;;11.97;50.31;100940.91;4955882;28;46183;-62
2023/04/26 09:12:21;;;;;;;;;9.33;9.33;;;;;12.00;50.21;100939.00;4956072;28;45427;-62
2023/04/26 09:14:47;;;;;;;;;10.67;10.67;;;;;12.01;50.29;100932.84;4954946;28;45434;-61
2023/04/26 09:17:29;;;;;;;;;13.00;10.00;;;;;12.04;50.67;100927.47;4956042;28;45626;-62
2023/04/26 09:19:55;;;;;;;;;13.67;10.67;;;;;12.07;50.15;100921.22;4955780;28;45587;-62
2023/04/26 09:22:35;;;;;;;;;12.00;11.00;;;;;12.04;49.51;100924.81;4956047;28;45508;-62
2023/04/26 09:25:02;;;;;;;;;14.67;8.67;;;;;12.07;49.79;100935.25;4955890;28;45475;-62
2023/04/26 09:27:36;;;;;;;;;10.33;9.00;;;;;12.09;49.87;100925.53;4956492;28;45726;-62
2023/04/26 09:30:09;;;;;;;;;11.00;11.00;;;;;12.09;49.26;100922.00;4955887;28;46182;-61
2023/04/26 09:32:46;;;;;;;;;11.67;10.67;;;;;12.14;49.59;100934.13;4955779;28;45448;-62
2023/04/26 09:35:39;;;;;;;;;8.00;8.00;;;;;12.16;48.82;100912.97;4955864;28;45399;-61
2023/04/26 09:38:08;;;;;;;;;8.00;7.00;;;;;12.19;48.59;100930.44;4956348;28;45588;-62
2023/04/26 09:40:36;;;;;;;;;6.33;6.33;;;;;12.19;48.81;100927.81;4955546;28;46276;-62
2023/04/26 09:43:09;;;;;;;;;11.00;10.00;;;;;12.25;48.60;100933.72;4955860;28;45502;-62
2023/04/26 09:45:49;;;;;;;;;11.67;11.67;;;;;12.28;48.03;100935.41;4955449;28;45557;-62
2023/04/26 09:48:21;;;;;;;;;8.33;8.33;;;;;12.31;48.98;100933.50;4955596;28;45466;-62
2023/04/26 09:50:48;;;;;;;;;10.00;8.33;;;;;12.33;48.43;100909.69;4955164;28;46130;-61
2023/04/26 09:53:39;;;;;;;;;7.00;5.67;;;;;12.40;48.33;100913.81;4955666;28;45439;-61
2023/04/26 09:56:10;;;;;;;;;9.33;9.33;;;;;12.40;48.15;100919.09;4954016;28;45432;-61
2023/04/26 09:58:37;;;;;;;;;9.00;9.00;;;;;12.41;47.75;100910.25;4958935;28;45387;-61
2023/04/26 10:01:06;;;;;;;;;9.33;9.33;;;;;12.46;47.72;100905.66;4958497;28;45403;-62
2023/04/26 10:03:35;;;;;;;;;5.00;4.67;;;;;12.52;48.84;100899.28;4958713;28;45504;-61
2023/04/26 10:06:01;;;;;;;;;9.67;8.33;;;;;12.57;48.10;100898.22;4958755;28;45387;-61
2023/04/26 10:08:27;;;;;;;;;9.00;9.00;;;;;12.59;47.56;100900.78;4957355;28;45595;-60
2023/04/26 10:10:53;;;;;;;;;9.67;7.67;;;;;12.61;47.84;100901.59;4957291;28;45455;-61
2023/04/26 10:13:19;;;;;;;;;8.00;8.00;;;;;12.65;47.41;100899.69;4958658;28;45535;-61
2023/04/26 10:15:44;;;;;;;;;5.33;5.33;;;;;12.70;46.57;100903.00;4959097;28;45623;-60
2023/04/26 10:18:10;;;;;;;;;6.67;6.67;;;;;12.69;46.44;100891.59;4958939;28;45648;-61
2023/04/26 10:20:41;;;;;;;;;7.00;6.67;;;;;12.76;46.46;100897.47;4958118;28;50242;-61
2023/04/26 10:23:13;;;;;;;;;8.33;8.33;;;;;12.75;47.00;100891.34;4958819;28;45414;-62
2023/04/26 10:25:40;;;;;;;;;7.00;7.00;;;;;12.79;46.51;100900.03;4956971;28;45530;-61
2023/04/26 10:28:07;;;;;;;;;7.67;7.67;;;;;12.76;46.55;100889.56;4958941;28;45432;-61
2023/04/26 10:30:32;;;;;;;;;10.33;8.33;;;;;12.80;46.47;100899.09;4958134;28;46119;-61
2023/04/26 10:32:58;;;;;;;;;8.00;8.00;;;;;12.84;46.25;100895.38;4958209;28;45435;-61
2023/04/26 10:35:25;;;;;;;;;12.33;10.67;;;;;12.90;46.08;100889.88;4958219;28;45616;-61
2023/04/26 10:38:02;;;;;;;;;7.00;6.00;;;;;12.96;46.72;100896.69;4958442;28;45450;-61
2023/04/26 10:40:30;;;;;;;;;9.33;8.33;;;;;12.94;45.89;100885.31;4958133;28;45495;-61
2023/04/26 10:43:08;;;;;;;;;6.33;6.33;;;;;12.99;45.75;100886.00;4958148;28;45430;-63
2023/04/26 10:45:34;;;;;;;;;8.00;7.00;;;;;13.03;46.17;100891.09;4958037;28;45499;-61
2023/04/26 10:48:21;;;;;;;;;7.67;6.67;;;;;13.02;44.82;100888.53;4958045;28;45511;-61
2023/04/26 10:51:03;;;;;;;;;6.33;6.33;;;;;13.02;45.46;100896.44;4957629;28;45487;-61
2023/04/26 10:53:51;;;;;;;;;5.33;4.67;;;;;13.03;45.94;100887.63;4958122;28;45435;-61
2023/04/26 10:56:23;;;;;;;;;7.00;7.00;;;;;13.04;45.97;100882.25;4957978;28;45419;-61
2023/04/26 10:59:06;;;;;;;;;6.00;6.00;;;;;13.08;46.07;100877.69;4957733;28;45450;-62
2023/04/26 11:01:31;;;;;;;;;7.33;7.33;;;;;13.13;45.85;100878.38;4957683;28;46219;-61
2023/04/26 11:03:57;;;;;;;;;7.33;7.33;;;;;13.16;45.76;100875.59;4957355;28;45501;-62
2023/04/26 11:06:26;;;;;;;;;7.00;4.00;;;;;13.22;45.47;100880.66;4957786;28;45490;-61
2023/04/26 11:08:52;;;;;;;;;8.00;7.00;;;;;13.19;44.70;100869.31;4957561;28;45521;-63
2023/04/26 11:11:18;;;;;;;;;8.67;8.00;;;;;13.21;44.23;100878.91;4957814;28;45476;-63